Time;durP1;ratioP1;P1;durP2;ratioP2;P2;SDS_P1;SDS_P2;PMS_P1;PMS_P2;Temp;Humidity;BMP_temperature;BMP_pressure;BME280_temperature;BME280_humidity;BME280_pressure;Samples;Min_cycle;Max_cycle;Signal;HPM_P1;HPM_P2
2022/12/04 00:00:11;;;;;;;26.70;14.20;;;;;;;1.04;100.00;151636.69;4989759;28;20437;-86
2022/12/04 00:02:56;;;;;;;25.40;14.87;;;;;;;1.10;100.00;151650.84;4995060;28;20464;-86
2022/12/04 00:05:41;;;;;;;25.97;15.70;;;;;;;1.08;100.00;151647.00;4985441;28;20871;-87
2022/12/04 00:08:28;;;;;;;24.63;12.77;;;;;;;1.13;100.00;151659.84;4999231;28;20600;-85
2022/12/04 00:11:15;;;;;;;25.20;15.80;;;;;;;1.12;100.00;151657.25;4987877;28;20966;-86
2022/12/04 00:14:01;;;;;;;22.27;13.90;;;;;;;1.07;100.00;151644.41;4991778;28;20448;-86
2022/12/04 00:16:49;;;;;;;21.67;13.27;;;;;;;1.07;100.00;151644.41;4993595;28;20942;-86
2022/12/04 00:19:34;;;;;;;22.20;13.97;;;;;;;1.03;100.00;151632.88;5011109;28;21046;-86
2022/12/04 00:22:20;;;;;;;23.97;13.97;;;;;;;0.99;100.00;151623.84;4998053;28;20460;-86
2022/12/04 00:25:07;;;;;;;22.40;15.07;;;;;;;1.10;100.00;151652.13;4991850;28;20448;-85
2022/12/04 00:27:52;;;;;;;21.57;13.40;;;;;;;1.18;100.00;151672.69;5001449;28;20966;-87
2022/12/04 00:30:40;;;;;;;25.83;15.10;;;;;;;1.16;100.00;151667.56;4975677;28;20887;-88
2022/12/04 00:33:26;;;;;;;25.50;14.73;;;;;;;1.13;100.00;151659.84;4983812;28;20488;-87
2022/12/04 00:36:13;;;;;;;17.73;12.70;;;;;;;1.09;100.00;151649.53;5006267;28;20958;-87
2022/12/04 00:38:59;;;;;;;21.70;14.03;;;;;;;1.16;100.00;151666.25;4983300;28;20457;-88
2022/12/04 00:41:46;;;;;;;22.50;13.90;;;;;;;1.04;100.00;151635.41;4996415;28;20519;-87
2022/12/04 00:44:32;;;;;;;22.27;13.63;;;;;;;1.02;100.00;151631.56;4972880;28;20469;-87
2022/12/04 00:47:17;;;;;;;20.80;12.83;;;;;;;1.03;100.00;151634.09;4995801;28;20943;-87
2022/12/04 00:50:02;;;;;;;23.73;13.30;;;;;;;1.10;100.00;151652.13;4995903;28;20447;-87
2022/12/04 00:52:47;;;;;;;19.23;12.63;;;;;;;1.06;100.00;151641.81;4984011;28;20467;-87
2022/12/04 00:55:33;;;;;;;21.10;13.60;;;;;;;1.08;100.00;151647.00;4987283;28;20544;-87
2022/12/04 00:58:20;;;;;;;23.37;14.30;;;;;;;1.06;100.00;151640.56;5002290;28;20460;-87
2022/12/04 01:01:07;;;;;;;22.53;13.17;;;;;;;1.04;100.00;151636.69;5001619;28;20436;-87
2022/12/04 01:03:52;;;;;;;19.47;13.10;;;;;;;1.01;100.00;151628.97;5003999;28;20892;-87
2022/12/04 01:06:37;;;;;;;18.43;13.50;;;;;;;1.06;100.00;151641.81;4998932;28;20792;-85
2022/12/04 01:09:22;;;;;;;24.07;12.80;;;;;;;1.02;100.00;151631.56;4996750;28;20452;-86
2022/12/04 01:12:08;;;;;;;22.30;13.30;;;;;;;1.02;100.00;151630.28;4991247;28;20496;-87
2022/12/04 01:14:54;;;;;;;22.87;13.10;;;;;;;1.02;100.00;151631.56;4989271;28;20839;-87
2022/12/04 01:17:40;;;;;;;17.00;12.20;;;;;;;1.10;100.00;151652.13;4997099;28;20468;-87
2022/12/04 01:20:25;;;;;;;22.43;14.13;;;;;;;1.08;100.00;151647.00;5001062;28;20535;-87
2022/12/04 01:23:10;;;;;;;22.30;14.00;;;;;;;1.05;100.00;151639.28;4995850;28;20462;-87
2022/12/04 01:25:57;;;;;;;19.20;12.27;;;;;;;1.01;100.00;151628.97;4960362;28;20558;-87
2022/12/04 01:28:43;;;;;;;20.70;13.13;;;;;;;1.01;100.00;151628.97;4987655;28;20456;-87
2022/12/04 01:31:30;;;;;;;18.50;12.80;;;;;;;1.05;100.00;151638.00;4984051;28;20433;-87
2022/12/04 01:34:15;;;;;;;17.87;11.43;;;;;;;0.98;100.00;151621.28;4975540;28;20449;-87
2022/12/04 01:37:00;;;;;;;18.97;11.73;;;;;;;1.03;100.00;151632.88;5001735;28;20475;-87
2022/12/04 01:39:46;;;;;;;17.83;11.33;;;;;;;1.01;100.00;151628.97;4987946;28;20417;-87
2022/12/04 01:42:31;;;;;;;20.67;12.37;;;;;;;1.02;100.00;151631.56;4993098;28;20809;-87
2022/12/04 01:45:38;;;;;;;20.27;12.60;;;;;;;1.06;100.00;151641.81;4987951;28;20498;-86
2022/12/04 01:48:29;;;;;;;18.60;10.90;;;;;;;1.03;100.00;151634.09;4982460;28;20728;-87
2022/12/04 01:51:17;;;;;;;16.20;11.07;;;;;;;1.02;100.00;151631.56;4993997;28;20918;-87
2022/12/04 01:54:05;;;;;;;15.33;11.53;;;;;;;1.02;100.00;151631.56;4999756;28;20496;-87
2022/12/04 01:56:53;;;;;;;19.60;13.23;;;;;;;1.02;100.00;151630.28;4996319;28;20530;-86
2022/12/04 01:59:41;;;;;;;18.10;11.00;;;;;;;1.02;100.00;151631.56;4985539;28;20421;-87
2022/12/04 02:02:30;;;;;;;19.87;11.07;;;;;;;1.07;100.00;151643.13;4989126;28;20465;-87
2022/12/04 02:05:20;;;;;;;15.43;11.00;;;;;;;1.06;100.00;151640.56;4986910;28;20937;-87
2022/12/04 02:08:05;;;;;;;17.87;11.03;;;;;;;1.08;100.00;151647.00;4991222;28;20935;-76
2022/12/04 02:10:58;;;;;;;20.77;12.90;;;;;;;1.07;100.00;151644.41;4988428;28;20785;-76
2022/12/04 02:13:51;;;;;;;22.67;13.07;;;;;;;1.12;100.00;151657.25;4974063;28;20980;-76
2022/12/04 02:16:40;;;;;;;20.17;13.63;;;;;;;1.16;100.00;151666.25;4982324;28;20445;-76
2022/12/04 02:19:41;;;;;;;21.80;13.47;;;;;;;1.21;100.00;151680.41;4950173;28;20481;-76
2022/12/04 02:22:45;;;;;;;21.40;11.17;;;;;;;1.11;100.00;151654.66;4975755;28;20481;-76
2022/12/04 02:25:35;;;;;;;20.27;13.30;;;;;;;1.15;100.00;151664.97;4956439;28;20433;-76
2022/12/04 02:28:23;;;;;;;24.30;13.97;;;;;;;1.11;100.00;151654.66;4970742;28;20549;-76
2022/12/04 02:31:13;;;;;;;19.60;12.00;;;;;;;1.05;100.00;151639.28;4980669;28;20421;-76
2022/12/04 02:34:01;;;;;;;18.40;12.30;;;;;;;1.08;100.00;151647.00;4966385;28;20972;-76
2022/12/04 02:36:50;;;;;;;22.87;13.57;;;;;;;1.04;100.00;151636.69;4977752;28;20439;-76
2022/12/04 02:39:38;;;;;;;20.70;13.57;;;;;;;1.05;100.00;151639.28;4972254;28;20533;-77
2022/12/04 02:42:30;;;;;;;22.83;15.17;;;;;;;1.07;100.00;151643.13;4962497;28;20453;-76
2022/12/04 02:45:20;;;;;;;21.10;13.10;;;;;;;1.20;100.00;151677.81;4972026;28;20446;-76
2022/12/04 02:48:07;;;;;;;23.13;14.70;;;;;;;1.13;100.00;151658.53;4978438;28;20461;-76
2022/12/04 02:50:55;;;;;;;18.70;13.20;;;;;;;1.09;100.00;151649.53;4956620;28;20808;-76
2022/12/04 02:53:42;;;;;;;21.37;13.70;;;;;;;1.11;100.00;151654.66;4962143;28;20956;-76
2022/12/04 02:56:31;;;;;;;24.27;14.37;;;;;;;1.11;100.00;151653.41;4964496;28;20463;-76
2022/12/04 02:59:19;;;;;;;25.50;15.30;;;;;;;1.08;100.00;151647.00;4966639;28;20447;-76
2022/12/04 03:02:10;;;;;;;25.97;14.87;;;;;;;1.18;100.00;151671.38;4993462;28;20549;-76
2022/12/04 03:04:57;;;;;;;22.37;14.70;;;;;;;1.11;100.00;151654.66;4955642;28;20804;-76
2022/12/04 03:07:46;;;;;;;21.43;13.10;;;;;;;1.24;100.00;151686.81;4957024;28;20524;-76
2022/12/04 03:10:35;;;;;;;26.10;13.30;;;;;;;1.11;100.00;151654.66;4958558;28;20590;-76
2022/12/04 03:13:22;;;;;;;24.30;14.27;;;;;;;1.09;100.00;151649.53;4981737;28;20448;-76
2022/12/04 03:16:10;;;;;;;24.70;13.20;;;;;;;1.14;100.00;151662.38;4972468;28;20745;-76
2022/12/04 03:18:59;;;;;;;22.60;12.97;;;;;;;1.13;100.00;151658.53;4968282;28;20446;-76
2022/12/04 03:21:48;;;;;;;20.77;14.57;;;;;;;1.06;100.00;151641.81;4956947;28;20438;-76
2022/12/04 03:24:36;;;;;;;21.03;13.27;;;;;;;1.05;100.00;151639.28;4979356;28;21006;-76
2022/12/04 03:27:26;;;;;;;24.17;14.20;;;;;;;1.03;100.00;151634.09;4960252;28;20455;-76
2022/12/04 03:30:14;;;;;;;23.00;14.60;;;;;;;1.05;100.00;151639.28;4965974;28;20418;-77
2022/12/04 03:33:03;;;;;;;21.77;13.40;;;;;;;1.06;100.00;151641.81;4992036;28;20802;-76
2022/12/04 03:35:52;;;;;;;22.00;13.80;;;;;;;1.04;100.00;151636.69;4959856;28;20514;-76
2022/12/04 03:38:44;;;;;;;25.33;13.73;;;;;;;1.06;100.00;151640.56;4963412;28;20794;-76
2022/12/04 03:41:31;;;;;;;20.50;13.93;;;;;;;1.13;100.00;151659.84;4983750;28;20423;-76
2022/12/04 03:44:21;;;;;;;22.33;15.30;;;;;;;1.09;100.00;151649.53;4978705;28;20592;-76
2022/12/04 03:47:08;;;;;;;19.53;12.93;;;;;;;1.03;100.00;151634.09;4977035;28;20605;-76
2022/12/04 03:49:58;;;;;;;23.57;13.93;;;;;;;1.09;100.00;151648.25;4977804;28;20429;-76
2022/12/04 03:52:48;;;;;;;20.87;13.50;;;;;;;1.07;100.00;151644.41;4962012;28;20458;-76
2022/12/04 03:55:36;;;;;;;22.57;12.97;;;;;;;1.01;100.00;151628.97;4956245;28;20531;-76
2022/12/04 03:58:25;;;;;;;22.07;13.73;;;;;;;0.96;100.00;151616.16;4952104;28;20460;-76
2022/12/04 04:01:12;;;;;;;22.20;12.93;;;;;;;1.05;100.00;151638.00;4957829;28;20518;-76
2022/12/04 04:03:58;;;;;;;22.90;13.20;;;;;;;1.03;100.00;151632.88;4967977;28;20446;-76
2022/12/04 04:06:48;;;;;;;21.33;13.70;;;;;;;1.09;100.00;151648.25;4959676;28;20462;-76
2022/12/04 04:09:38;;;;;;;21.17;13.13;;;;;;;1.19;100.00;151675.22;4965360;28;20446;-76
2022/12/04 04:12:25;;;;;;;23.00;14.67;;;;;;;1.08;100.00;151647.00;4995370;28;20465;-76
2022/12/04 04:24:30;;;;;;;16.83;10.83;;;;;;;0.99;100.00;151623.84;4992848;28;20496;-76
2022/12/04 04:27:16;;;;;;;20.70;12.20;;;;;;;1.03;100.00;151634.09;4993024;28;20463;-76
2022/12/04 04:30:02;;;;;;;18.70;13.37;;;;;;;1.06;100.00;151641.81;4993593;28;20583;-76
2022/12/04 04:32:52;;;;;;;21.83;11.60;;;;;;;1.01;100.00;151628.97;5003001;28;20789;-76
2022/12/04 04:35:47;;;;;;;21.43;12.93;;;;;;;1.00;100.00;151626.44;4994001;28;20820;-76
2022/12/04 04:38:39;;;;;;;21.13;12.70;;;;;;;1.03;100.00;151632.88;4996174;28;20456;-76
2022/12/04 04:41:30;;;;;;;20.10;12.47;;;;;;;1.01;100.00;151628.97;4988218;28;20454;-76
2022/12/04 04:44:20;;;;;;;19.97;12.17;;;;;;;1.04;100.00;151635.41;4991647;28;20456;-76
2022/12/04 04:47:07;;;;;;;22.97;13.03;;;;;;;0.99;100.00;151622.56;4990961;28;20797;-76
2022/12/04 04:49:54;;;;;;;17.43;10.10;;;;;;;1.09;100.00;151649.53;4989574;28;20452;-76
2022/12/04 04:52:41;;;;;;;17.63;11.30;;;;;;;1.01;100.00;151627.69;4985426;28;20951;-76
2022/12/04 04:55:27;;;;;;;17.17;10.73;;;;;;;0.97;100.00;151617.44;4990262;28;20499;-76
2022/12/04 04:58:14;;;;;;;15.33;10.80;;;;;;;1.02;100.00;151630.28;4995785;28;20788;-76
2022/12/04 05:01:03;;;;;;;14.87;10.57;;;;;;;0.95;100.00;151613.59;4988469;28;20485;-76
2022/12/04 05:03:49;;;;;;;16.63;11.23;;;;;;;0.96;100.00;151616.16;4987147;28;20424;-76
2022/12/04 05:06:34;;;;;;;20.57;10.90;;;;;;;0.98;100.00;151621.28;4992636;28;20444;-76
2022/12/04 05:09:20;;;;;;;22.27;12.77;;;;;;;1.04;100.00;151636.69;4978216;28;20466;-76
2022/12/04 05:12:05;;;;;;;18.47;11.13;;;;;;;0.98;100.00;151620.03;5002015;28;20551;-76
2022/12/04 05:14:50;;;;;;;19.80;10.93;;;;;;;0.97;100.00;151617.44;4995830;28;20540;-76
2022/12/04 05:17:40;;;;;;;19.63;10.60;;;;;;;1.00;100.00;151626.44;4988352;28;20594;-76
2022/12/04 05:20:25;;;;;;;19.57;11.03;;;;;;;0.91;100.00;151603.31;4998903;28;20448;-76
2022/12/04 05:23:10;;;;;;;20.40;11.80;;;;;;;0.91;100.00;151602.00;4992070;28;20828;-76
2022/12/04 05:25:59;;;;;;;18.97;11.40;;;;;;;0.92;100.00;151604.59;4990147;28;20464;-75
2022/12/04 05:28:44;;;;;;;17.93;11.13;;;;;;;0.96;100.00;151616.16;4985610;28;20979;-76
2022/12/04 05:31:30;;;;;;;15.00;9.80;;;;;;;0.96;100.00;151616.16;5002541;28;20413;-76
2022/12/04 05:34:17;;;;;;;16.80;10.93;;;;;;;0.96;100.00;151614.84;4994871;28;20491;-75
2022/12/04 05:37:02;;;;;;;14.20;10.50;;;;;;;1.01;100.00;151628.97;4989616;28;20543;-75
2022/12/04 05:39:48;;;;;;;17.00;11.53;;;;;;;0.93;100.00;151608.44;4990455;28;20449;-76
2022/12/04 05:42:33;;;;;;;19.33;11.40;;;;;;;1.00;100.00;151626.44;4989777;28;20543;-76
2022/12/04 05:45:19;;;;;;;17.03;9.93;;;;;;;0.99;100.00;151623.84;5003243;28;20452;-76
2022/12/04 05:48:04;;;;;;;18.13;11.20;;;;;;;1.06;100.00;151641.81;4992028;28;20452;-75
2022/12/04 05:50:51;;;;;;;18.40;10.67;;;;;;;1.03;100.00;151634.09;4988348;28;20536;-76
2022/12/04 05:53:36;;;;;;;16.00;11.10;;;;;;;1.03;100.00;151634.09;4978463;28;20691;-76
2022/12/04 05:56:21;;;;;;;16.50;11.13;;;;;;;1.06;100.00;151640.56;4989942;28;20452;-75
2022/12/04 05:59:07;;;;;;;17.57;10.63;;;;;;;0.99;100.00;151623.84;5002705;28;20429;-76
2022/12/04 06:01:52;;;;;;;19.00;11.20;;;;;;;1.08;100.00;151647.00;4983882;28;20464;-75
2022/12/04 06:04:40;;;;;;;14.80;11.57;;;;;;;0.99;100.00;151622.56;4996572;28;20493;-76
2022/12/04 06:07:27;;;;;;;14.73;9.60;;;;;;;0.97;100.00;151618.72;4993102;28;20500;-76
2022/12/04 06:10:13;;;;;;;18.10;10.77;;;;;;;1.00;100.00;151625.16;4994126;28;20483;-76
2022/12/04 06:12:58;;;;;;;16.30;10.50;;;;;;;1.15;100.00;151664.97;4991317;28;20504;-76
2022/12/04 06:15:43;;;;;;;18.27;10.50;;;;;;;1.08;100.00;151647.00;4988797;28;20456;-75
2022/12/04 06:18:29;;;;;;;15.93;10.10;;;;;;;0.98;100.00;151620.03;4983705;28;21022;-76
2022/12/04 06:21:14;;;;;;;18.23;10.07;;;;;;;1.03;100.00;151634.09;4974032;28;20437;-75
2022/12/04 06:24:01;;;;;;;18.80;12.10;;;;;;;1.02;100.00;151631.56;4997444;28;20976;-86
2022/12/04 06:26:47;;;;;;;19.07;11.37;;;;;;;1.08;100.00;151647.00;4990214;28;20520;-86
2022/12/04 06:29:33;;;;;;;16.27;10.57;;;;;;;1.12;100.00;151657.25;4991587;28;20957;-87
2022/12/04 06:32:18;;;;;;;17.10;11.33;;;;;;;1.16;100.00;151666.25;4994056;28;20437;-87
2022/12/04 06:35:05;;;;;;;16.53;10.50;;;;;;;1.18;100.00;151672.69;4992901;28;20862;-87
2022/12/04 06:37:51;;;;;;;18.27;10.77;;;;;;;1.07;100.00;151643.13;4990931;28;20453;-86
2022/12/04 06:40:40;;;;;;;16.90;11.40;;;;;;;1.10;100.00;151650.84;5005530;28;20431;-86
2022/12/04 06:43:26;;;;;;;18.20;11.23;;;;;;;1.13;100.00;151659.84;5008210;28;20451;-86
2022/12/04 06:46:13;;;;;;;21.63;11.50;;;;;;;1.14;100.00;151662.38;5001047;28;20452;-87
2022/12/04 06:49:00;;;;;;;21.33;11.43;;;;;;;1.15;100.00;151664.97;5008299;28;20919;-86
2022/12/04 06:51:46;;;;;;;21.00;11.80;;;;;;;1.18;100.00;151672.69;5007288;28;20444;-87
2022/12/04 06:54:31;;;;;;;18.43;11.07;;;;;;;1.17;100.00;151668.78;4994673;28;20909;-86
2022/12/04 06:57:18;;;;;;;15.00;9.80;;;;;;;1.14;100.00;151662.38;4986447;28;20803;-87
2022/12/04 07:00:04;;;;;;;16.33;11.10;;;;;;;1.09;100.00;151649.53;5007972;28;20428;-86
2022/12/04 07:02:50;;;;;;;15.77;10.67;;;;;;;1.08;100.00;151647.00;4995416;28;20568;-75
2022/12/04 07:05:35;;;;;;;19.60;11.57;;;;;;;1.08;100.00;151647.00;4986596;28;20448;-76
2022/12/04 07:08:21;;;;;;;17.30;10.83;;;;;;;1.08;100.00;151647.00;4993432;28;20436;-76
2022/12/04 07:11:06;;;;;;;21.80;11.47;;;;;;;1.13;100.00;151659.84;4993705;28;20437;-76
2022/12/04 07:13:54;;;;;;;18.13;11.03;;;;;;;1.19;100.00;151675.22;5005585;28;20461;-76
2022/12/04 07:16:40;;;;;;;18.07;10.57;;;;;;;1.27;100.00;151693.22;5002898;28;20459;-75
2022/12/04 07:19:25;;;;;;;17.47;11.17;;;;;;;1.14;100.00;151662.38;5003894;28;20510;-75
2022/12/04 07:22:11;;;;;;;18.67;11.37;;;;;;;1.16;100.00;151667.56;5013574;28;20412;-76
2022/12/04 07:24:56;;;;;;;22.80;11.30;;;;;;;1.22;100.00;151682.94;4999569;28;20453;-76
2022/12/04 07:27:42;;;;;;;19.57;11.90;;;;;;;1.28;100.00;151695.78;4986291;28;20456;-76
2022/12/04 07:30:28;;;;;;;20.50;11.93;;;;;;;1.30;100.00;151700.94;4992983;28;20459;-77
2022/12/04 07:33:14;;;;;;;18.83;10.90;;;;;;;1.22;100.00;151682.94;5012301;28;20819;-76
2022/12/04 07:36:01;;;;;;;20.10;12.40;;;;;;;1.18;100.00;151672.69;5012667;28;20451;-76
2022/12/04 07:38:46;;;;;;;19.70;11.67;;;;;;;1.18;100.00;151672.69;4993239;28;20951;-76
2022/12/04 07:41:32;;;;;;;20.33;11.40;;;;;;;1.19;100.00;151675.22;4976287;28;20434;-76
2022/12/04 07:44:24;;;;;;;17.63;11.57;;;;;;;1.15;100.00;151664.97;4961374;28;20445;-76
2022/12/04 07:47:11;;;;;;;16.60;10.43;;;;;;;1.15;100.00;151663.66;4960233;28;20825;-76
2022/12/04 07:49:56;;;;;;;18.03;11.40;;;;;;;1.24;100.00;151686.81;4981671;28;20456;-75
2022/12/04 07:52:41;;;;;;;19.60;10.90;;;;;;;1.20;100.00;151677.81;4991878;28;20429;-76
2022/12/04 07:55:27;;;;;;;17.43;10.90;;;;;;;1.20;100.00;151676.50;4986579;28;20475;-76
2022/12/04 07:58:12;;;;;;;15.37;11.10;;;;;;;1.25;100.00;151689.34;4993591;28;20455;-76
2022/12/04 08:01:05;;;;;;;20.43;12.07;;;;;;;1.29;100.00;151698.38;5010874;28;20416;-76
2022/12/04 08:03:53;;;;;;;19.77;11.17;;;;;;;1.32;100.00;151707.38;4978020;28;20580;-75
2022/12/04 08:06:38;;;;;;;17.53;10.67;;;;;;;1.33;100.00;151708.63;4997971;28;20436;-75
2022/12/04 08:09:24;;;;;;;17.63;10.30;;;;;;;1.29;100.00;151699.66;4989980;28;20452;-75
2022/12/04 08:12:09;;;;;;;19.53;10.70;;;;;;;1.28;100.00;151697.06;5008243;28;20479;-75
2022/12/04 08:14:55;;;;;;;16.10;10.63;;;;;;;1.37;100.00;151718.91;5012334;28;20549;-75
2022/12/04 08:17:40;;;;;;;19.63;11.37;;;;;;;1.43;100.00;151734.34;5006049;28;20951;-76
2022/12/04 08:20:27;;;;;;;15.37;9.70;;;;;;;1.39;100.00;151725.34;4990981;28;20528;-76
2022/12/04 08:23:13;;;;;;;16.90;10.67;;;;;;;1.49;100.00;151749.72;4989404;28;20441;-75
2022/12/04 08:25:59;;;;;;;18.20;11.17;;;;;;;1.50;100.00;151753.63;4990498;28;20429;-76
2022/12/04 08:28:45;;;;;;;16.43;10.60;;;;;;;1.43;100.00;151735.59;4975300;28;20818;-77
2022/12/04 08:31:33;;;;;;;14.03;10.13;;;;;;;1.48;100.00;151747.19;4986549;28;20916;-76
2022/12/04 08:34:18;;;;;;;15.60;10.20;;;;;;;1.41;100.00;151729.16;4989240;28;20587;-76
2022/12/04 08:37:04;;;;;;;19.17;10.70;;;;;;;1.42;100.00;151733.06;4999328;28;20473;-76
2022/12/04 08:39:50;;;;;;;19.33;14.77;;;;;;;1.39;100.00;151724.03;4988514;28;20448;-76
2022/12/04 08:42:35;;;;;;;17.33;11.60;;;;;;;1.37;100.00;151718.91;4997662;28;20776;-76
2022/12/04 08:45:20;;;;;;;16.50;10.60;;;;;;;1.35;100.00;151715.03;5001314;28;20436;-76
2022/12/04 08:48:06;;;;;;;18.87;12.07;;;;;;;1.38;100.00;151722.75;4990027;28;20492;-74
2022/12/04 08:50:51;;;;;;;19.63;12.60;;;;;;;1.51;100.00;151754.91;4984635;28;20572;-75
2022/12/04 08:53:38;;;;;;;17.77;10.90;;;;;;;1.48;100.00;151748.50;4988576;28;20449;-74
2022/12/04 08:56:24;;;;;;;17.83;10.73;;;;;;;1.48;100.00;151748.50;4985797;28;20463;-74
2022/12/04 08:59:11;;;;;;;18.23;10.97;;;;;;;1.47;100.00;151744.59;4993135;28;20938;-76
2022/12/04 09:01:56;;;;;;;17.87;11.83;;;;;;;1.44;100.00;151738.19;4989897;28;20518;-76
2022/12/04 09:04:42;;;;;;;17.40;11.23;;;;;;;1.43;100.00;151734.34;5006170;28;20435;-76
2022/12/04 09:07:27;;;;;;;19.40;11.20;;;;;;;1.49;100.00;151751.03;4983230;28;20418;-75
2022/12/04 09:10:14;;;;;;;20.07;11.17;;;;;;;1.49;100.00;151749.72;4971229;28;20438;-76
2022/12/04 09:12:59;;;;;;;15.77;11.10;;;;;;;1.45;100.00;151740.78;4988644;28;20468;-75
2022/12/04 09:15:45;;;;;;;17.63;11.20;;;;;;;1.49;100.00;151749.72;4972754;28;20645;-76
2022/12/04 09:18:30;;;;;;;16.40;11.70;;;;;;;1.47;100.00;151745.91;4980062;28;20528;-77
2022/12/04 09:21:17;;;;;;;14.60;10.90;;;;;;;1.47;100.00;151744.59;4995762;28;20456;-76
2022/12/04 09:24:03;;;;;;;19.07;12.57;;;;;;;1.49;100.00;151749.72;4995270;28;20816;-76
2022/12/04 09:26:49;;;;;;;16.77;11.30;;;;;;;1.51;100.00;151756.16;4993485;28;20460;-76
2022/12/04 09:29:35;;;;;;;16.50;11.50;;;;;;;1.60;100.00;151778.00;4976160;28;20581;-76
2022/12/04 09:32:20;;;;;;;18.93;11.30;;;;;;;1.61;100.00;151781.91;4994706;28;20932;-76
2022/12/04 09:35:06;;;;;;;18.30;11.73;;;;;;;1.63;100.00;151785.72;4995247;28;20441;-76
2022/12/04 09:37:52;;;;;;;19.37;11.73;;;;;;;1.65;100.00;151790.84;4995250;28;20406;-76
2022/12/04 09:40:44;;;;;;;16.37;11.30;;;;;;;1.70;100.00;151805.00;4993520;28;20503;-76
2022/12/04 09:43:35;;;;;;;18.67;12.17;;;;;;;1.67;100.00;151795.97;5007640;28;20556;-76
2022/12/04 09:46:27;;;;;;;16.30;11.20;;;;;;;1.73;100.00;151812.72;5014769;28;20420;-76
2022/12/04 09:49:15;;;;;;;16.73;9.57;;;;;;;1.66;100.00;151793.44;5014104;28;20923;-76
2022/12/04 09:52:03;;;;;;;15.67;11.27;;;;;;;1.70;100.00;151803.69;4992858;28;20500;-76
2022/12/04 09:54:50;;;;;;;20.63;12.20;;;;;;;1.66;100.00;151793.44;4960685;28;20425;-76
2022/12/04 09:57:38;;;;;;;16.43;12.10;;;;;;;1.63;100.00;151787.03;4986995;28;20828;-76
2022/12/04 10:00:27;;;;;;;22.40;12.80;;;;;;;1.69;100.00;151802.47;4997340;28;20956;-76
2022/12/04 10:03:15;;;;;;;17.23;11.77;;;;;;;1.68;100.00;151798.56;4994731;28;20749;-76
2022/12/04 10:06:07;;;;;;;18.00;12.60;;;;;;;1.72;100.00;151810.13;4993051;28;20782;-76
2022/12/04 10:09:00;;;;;;;22.17;13.60;;;;;;;1.68;100.00;151799.88;4990512;28;20966;-76
2022/12/04 10:11:51;;;;;;;22.77;12.50;;;;;;;1.68;100.00;151798.56;4996504;28;20882;-76
2022/12/04 10:14:48;;;;;;;18.07;10.77;;;;;;;1.67;100.00;151795.97;4975486;28;21056;-76
2022/12/04 10:17:45;;;;;;;18.10;12.17;;;;;;;1.70;100.00;151803.69;4996642;28;20816;-76
2022/12/04 10:20:49;;;;;;;22.50;13.47;;;;;;;1.70;100.00;151803.69;4990662;28;20534;-76
2022/12/04 10:23:47;;;;;;;19.40;13.33;;;;;;;1.68;100.00;151798.56;4974797;28;20565;-76
2022/12/04 10:26:35;;;;;;;19.30;13.23;;;;;;;1.72;100.00;151810.13;5006000;28;20569;-76
2022/12/04 10:29:22;;;;;;;21.43;13.30;;;;;;;1.72;100.00;151808.88;4996196;28;20461;-76
2022/12/04 10:32:16;;;;;;;19.40;11.73;;;;;;;1.67;100.00;151795.97;5013563;28;20834;-76
2022/12/04 10:35:17;;;;;;;22.47;14.83;;;;;;;1.61;100.00;151781.91;5001519;28;20439;-76
2022/12/04 10:38:06;;;;;;;23.60;14.20;;;;;;;1.62;100.00;151784.44;4970305;28;20901;-76
2022/12/04 10:40:55;;;;;;;22.50;15.50;;;;;;;1.64;100.00;151788.31;4997210;28;20436;-76
2022/12/04 10:43:43;;;;;;;20.97;13.83;;;;;;;1.61;100.00;151780.59;4979667;28;20456;-75
2022/12/04 10:46:29;;;;;;;24.70;15.37;;;;;;;1.72;100.00;151808.88;5010537;28;20424;-75
2022/12/04 10:49:18;;;;;;;21.50;13.27;;;;;;;1.75;100.00;151816.56;4993665;28;20448;-76
2022/12/04 10:52:05;;;;;;;22.80;13.60;;;;;;;1.62;100.00;151783.13;4998844;28;20546;-75
2022/12/04 10:54:52;;;;;;;24.57;14.23;;;;;;;1.58;100.00;151772.88;4990335;28;20924;-76
2022/12/04 10:57:39;;;;;;;23.87;13.20;;;;;;;1.57;100.00;151771.59;4980117;28;20461;-76
2022/12/04 11:00:27;;;;;;;22.67;13.57;;;;;;;1.68;100.00;151799.88;5002010;28;20945;-75
2022/12/04 11:03:24;;;;;;;22.77;14.83;;;;;;;1.67;100.00;151795.97;4997310;28;20409;-75
2022/12/04 11:06:11;;;;;;;21.80;14.20;;;;;;;1.75;100.00;151816.56;5000007;28;20424;-75
2022/12/04 11:08:58;;;;;;;24.73;15.13;;;;;;;1.71;100.00;151806.28;4981392;28;20574;-76
2022/12/04 11:11:44;;;;;;;21.67;15.03;;;;;;;1.73;100.00;151811.41;5000339;28;20471;-75
2022/12/04 11:14:29;;;;;;;25.60;15.00;;;;;;;1.67;100.00;151795.97;4979988;28;20448;-75
2022/12/04 11:17:17;;;;;;;23.70;14.77;;;;;;;1.68;100.00;151799.88;5000226;28;20721;-75
2022/12/04 11:20:06;;;;;;;21.73;13.00;;;;;;;1.70;100.00;151803.69;4986556;28;20465;-75
2022/12/04 11:22:55;;;;;;;21.70;14.00;;;;;;;1.63;100.00;151787.03;4981561;28;20464;-75
2022/12/04 11:25:47;;;;;;;22.90;13.97;;;;;;;1.61;100.00;151781.91;4996667;28;20630;-75
2022/12/04 11:28:33;;;;;;;18.53;13.17;;;;;;;1.72;100.00;151808.88;4995007;28;20589;-75
2022/12/04 11:31:21;;;;;;;19.33;12.73;;;;;;;1.70;100.00;151805.00;4992523;28;20428;-76
2022/12/04 11:34:08;;;;;;;18.07;12.43;;;;;;;1.71;100.00;151806.28;5000014;28;20472;-75
2022/12/04 11:36:55;;;;;;;21.97;13.00;;;;;;;1.68;100.00;151798.56;5005179;28;20460;-75
2022/12/04 11:39:41;;;;;;;20.40;12.93;;;;;;;1.76;100.00;151819.13;4991981;28;20432;-75
2022/12/04 11:42:29;;;;;;;17.50;11.93;;;;;;;1.70;100.00;151803.69;4992642;28;20515;-75
2022/12/04 11:45:21;;;;;;;21.30;13.83;;;;;;;1.68;100.00;151798.56;4999419;28;20448;-76
2022/12/04 11:48:14;;;;;;;16.10;11.23;;;;;;;1.69;100.00;151802.47;4994398;28;21034;-75
2022/12/04 11:51:06;;;;;;;22.00;13.50;;;;;;;1.69;100.00;151801.16;4997001;28;20496;-76
2022/12/04 11:53:57;;;;;;;20.10;12.77;;;;;;;1.69;100.00;151801.16;5000207;28;20460;-76
2022/12/04 11:56:45;;;;;;;21.17;13.70;;;;;;;1.72;100.00;151808.88;5005093;28;20551;-75
2022/12/04 11:59:49;;;;;;;20.20;12.60;;;;;;;1.77;100.00;151821.72;5002340;28;20447;-76
2022/12/04 12:02:46;;;;;;;17.07;12.00;;;;;;;1.69;100.00;151801.16;5011171;28;20555;-75
2022/12/04 12:06:00;;;;;;;19.40;12.87;;;;;;;1.71;100.00;151806.28;4999530;28;20459;-75
2022/12/04 12:08:58;;;;;;;20.90;13.33;;;;;;;1.77;100.00;151822.97;5011817;28;20440;-76
2022/12/04 12:11:48;;;;;;;21.50;13.50;;;;;;;1.71;100.00;151807.59;5009037;28;21015;-76
2022/12/04 12:14:43;;;;;;;18.40;12.40;;;;;;;1.75;100.00;151817.84;4979415;28;20529;-76
2022/12/04 12:17:33;;;;;;;22.00;13.37;;;;;;;1.80;100.00;151830.69;4992143;28;20464;-76
2022/12/04 12:20:22;;;;;;;23.57;13.00;;;;;;;1.93;100.00;151861.56;4975357;28;20437;-76
2022/12/04 12:23:20;;;;;;;22.50;13.30;;;;;;;1.85;100.00;151842.28;4987123;28;21026;-76
2022/12/04 12:26:11;;;;;;;20.43;12.17;;;;;;;1.81;100.00;151832.00;4972864;28;20552;-76
2022/12/04 12:29:10;;;;;;;20.67;13.33;;;;;;;1.79;100.00;151828.16;4973669;28;20474;-76
2022/12/04 12:32:19;;;;;;;19.07;12.07;;;;;;;1.84;100.00;151839.72;4988426;28;20452;-76
2022/12/04 12:35:06;;;;;;;20.77;14.00;;;;;;;1.88;100.00;151849.97;4969056;28;20810;-75
2022/12/04 12:37:52;;;;;;;18.30;12.23;;;;;;;1.92;100.00;151860.28;4978828;28;20463;-76
2022/12/04 12:40:41;;;;;;;20.83;12.87;;;;;;;1.85;100.00;151842.28;4988602;28;20777;-76
2022/12/04 12:43:29;;;;;;;20.77;11.50;;;;;;;1.88;100.00;151849.97;5003736;28;20461;-76
2022/12/04 12:46:18;;;;;;;13.83;9.60;;;;;;;1.85;100.00;151842.28;4999352;28;20447;-76
2022/12/04 12:49:10;;;;;;;18.77;12.60;;;;;;;1.94;100.00;151865.41;5010875;28;20432;-76
2022/12/04 12:51:59;;;;;;;19.27;11.40;;;;;;;1.99;100.00;151878.25;4994762;28;21073;-76